createdAt,value
2023-05-19T00:00:37.217Z,6.40
2023-05-19T00:03:11.049Z,6.00
2023-05-19T00:05:46.958Z,5.93
2023-05-19T00:08:18.165Z,6.22
2023-05-19T00:10:46.969Z,6.25
2023-05-19T00:13:16.329Z,6.60
2023-05-19T00:15:48.064Z,6.40
2023-05-19T00:18:21.740Z,6.57
2023-05-19T00:20:52.661Z,6.65
2023-05-19T00:23:25.304Z,7.70
2023-05-19T00:25:54.117Z,7.50
2023-05-19T00:28:29.701Z,8.30
2023-05-19T00:31:03.001Z,9.65
2023-05-19T00:33:35.318Z,8.32
2023-05-19T00:36:14.489Z,9.82
2023-05-19T00:38:49.291Z,10.10
2023-05-19T00:41:17.976Z,9.32
2023-05-19T00:43:49.318Z,9.02
2023-05-19T00:46:21.292Z,9.88
2023-05-19T00:51:19.855Z,9.50
2023-05-19T00:53:51.214Z,9.80
2023-05-19T00:56:24.358Z,10.80
2023-05-19T00:58:53.608Z,11.93
2023-05-19T01:01:26.894Z,12.55
2023-05-19T01:04:01.244Z,12.25
2023-05-19T01:06:31.838Z,11.05
2023-05-19T01:09:01.304Z,12.68
2023-05-19T01:11:31.523Z,13.88
2023-05-19T01:14:03.537Z,12.35
2023-05-19T01:16:38.246Z,12.13
2023-05-19T01:19:16.080Z,12.95
2023-05-19T01:22:23.051Z,12.45
2023-05-19T01:25:24.451Z,12.77
2023-05-19T01:28:22.291Z,11.80
2023-05-19T01:30:59.013Z,11.93
2023-05-19T01:33:32.681Z,10.75
2023-05-19T01:36:06.272Z,10.90
2023-05-19T01:38:35.754Z,10.60
2023-05-19T01:41:08.112Z,9.68
2023-05-19T01:43:37.649Z,9.63
2023-05-19T01:46:11.266Z,9.48
2023-05-19T01:48:42.498Z,9.52
2023-05-19T01:51:12.166Z,9.52
2023-05-19T01:53:52.710Z,8.75
2023-05-19T01:56:36.444Z,8.98
2023-05-19T01:59:16.641Z,8.70
2023-05-19T02:01:58.146Z,8.85
2023-05-19T02:04:42.349Z,8.77
2023-05-19T02:07:19.651Z,9.10
2023-05-19T02:09:54.624Z,9.27
2023-05-19T02:12:29.697Z,9.05
2023-05-19T02:15:04.714Z,9.30
2023-05-19T02:17:39.166Z,8.65
2023-05-19T02:20:15.549Z,8.82
2023-05-19T02:22:44.704Z,9.60
2023-05-19T02:25:30.850Z,9.75
2023-05-19T02:28:00.938Z,10.02
2023-05-19T02:30:32.820Z,10.43
2023-05-19T02:33:06.397Z,10.55
2023-05-19T02:35:36.713Z,10.80
2023-05-19T02:38:05.391Z,10.75
2023-05-19T02:40:33.784Z,11.50
2023-05-19T02:43:04.622Z,10.18
2023-05-19T02:45:34.152Z,9.98
2023-05-19T02:48:07.275Z,10.18
2023-05-19T02:50:37.210Z,10.57
2023-05-19T02:53:08.588Z,10.32
2023-05-19T02:55:37.488Z,11.02
2023-05-19T02:58:05.722Z,10.13
2023-05-19T03:00:35.589Z,10.10
2023-05-19T03:03:06.019Z,9.80
2023-05-19T03:05:36.840Z,9.88
2023-05-19T03:08:11.706Z,10.38
2023-05-19T03:10:46.424Z,9.88
2023-05-19T03:13:17.110Z,9.20
2023-05-19T03:15:46.520Z,9.48
2023-05-19T03:18:24.889Z,9.80
2023-05-19T03:20:55.454Z,10.15
2023-05-19T03:23:26.756Z,10.30
2023-05-19T03:25:56.085Z,10.75
2023-05-19T03:28:27.324Z,10.70
2023-05-19T03:30:57.508Z,10.00
2023-05-19T03:33:30.564Z,10.05
2023-05-19T03:36:02.138Z,10.40
2023-05-19T03:38:34.409Z,10.57
2023-05-19T03:41:04.977Z,10.50
2023-05-19T03:43:35.138Z,11.13
2023-05-19T03:46:05.769Z,10.15
2023-05-19T03:48:39.902Z,10.57
2023-05-19T03:51:13.700Z,10.73
2023-05-19T03:53:47.066Z,10.57
2023-05-19T03:56:20.810Z,9.95
2023-05-19T03:58:54.808Z,10.18
2023-05-19T04:01:25.788Z,10.63
2023-05-19T04:03:58.389Z,10.73
2023-05-19T04:06:34.098Z,10.90
2023-05-19T04:09:16.220Z,10.82
2023-05-19T04:14:16.094Z,11.00
2023-05-19T04:16:47.568Z,11.25
2023-05-19T04:19:18.868Z,10.77
2023-05-19T04:21:47.796Z,10.95
2023-05-19T04:24:17.122Z,10.60
2023-05-19T04:26:53.360Z,10.30
2023-05-19T04:29:23.475Z,10.35
2023-05-19T04:31:54.930Z,10.35
2023-05-19T04:34:29.067Z,10.18
2023-05-19T04:36:59.235Z,10.73
2023-05-19T04:39:29.522Z,11.52
2023-05-19T04:42:02.762Z,12.77
2023-05-19T04:44:35.732Z,12.43
2023-05-19T04:47:06.423Z,12.77
2023-05-19T04:49:39.574Z,12.10
2023-05-19T04:52:13.995Z,12.95
2023-05-19T04:54:45.443Z,12.75
2023-05-19T04:57:14.121Z,13.05
2023-05-19T04:59:44.650Z,12.30
2023-05-19T05:02:13.805Z,12.43
2023-05-19T05:04:47.545Z,13.00
2023-05-19T05:07:20.206Z,12.73
2023-05-19T05:09:50.445Z,12.93
2023-05-19T05:12:20.812Z,12.40
2023-05-19T05:14:52.082Z,12.50
2023-05-19T05:17:27.723Z,12.80
2023-05-19T05:19:58.337Z,13.13
2023-05-19T05:22:27.318Z,13.90
2023-05-19T05:24:56.479Z,13.82
2023-05-19T05:27:28.987Z,13.32
2023-05-19T05:30:01.148Z,13.07
2023-05-19T05:35:01.323Z,13.32
2023-05-19T05:37:30.351Z,13.35
2023-05-19T05:39:59.735Z,12.45
2023-05-19T05:42:30.152Z,12.50
2023-05-19T05:45:02.035Z,12.25
2023-05-19T05:47:32.702Z,12.27
2023-05-19T05:50:03.748Z,11.77
2023-05-19T05:52:34.768Z,11.60
2023-05-19T05:55:03.771Z,11.57
2023-05-19T05:57:35.767Z,10.55
2023-05-19T06:00:07.821Z,11.20
2023-05-19T06:02:38.528Z,11.23
2023-05-19T06:05:12.436Z,10.55
2023-05-19T06:07:44.188Z,10.27
2023-05-19T06:10:14.343Z,9.95
2023-05-19T06:12:44.716Z,10.23
2023-05-19T06:15:18.616Z,10.13
2023-05-19T06:17:50.248Z,10.70
2023-05-19T06:22:52.631Z,10.20
2023-05-19T06:25:21.993Z,9.98
2023-05-19T06:27:50.655Z,9.90
2023-05-19T06:30:18.961Z,9.18
2023-05-19T06:32:47.318Z,9.02
2023-05-19T06:35:16.746Z,8.95
2023-05-19T06:37:50.397Z,8.77
2023-05-19T06:40:19.709Z,8.35
2023-05-19T06:42:49.610Z,8.40
2023-05-19T06:45:21.951Z,8.73
2023-05-19T06:47:51.175Z,8.38
2023-05-19T06:50:19.951Z,7.72
2023-05-19T06:52:58.613Z,7.82
2023-05-19T06:55:27.412Z,8.43
2023-05-19T06:57:57.013Z,7.88
2023-05-19T07:00:27.232Z,7.57
2023-05-19T07:02:57.166Z,6.90
2023-05-19T07:05:25.687Z,7.03
2023-05-19T07:07:56.141Z,6.53
2023-05-19T07:10:27.938Z,7.03
2023-05-19T07:12:58.112Z,6.90
2023-05-19T07:15:32.060Z,7.30
2023-05-19T07:18:01.079Z,8.13
2023-05-19T07:20:32.517Z,7.90
2023-05-19T07:23:03.594Z,7.55
2023-05-19T07:25:31.876Z,9.53
2023-05-19T07:28:00.165Z,9.82
2023-05-19T07:30:29.477Z,9.98
2023-05-19T07:32:58.517Z,10.25
2023-05-19T07:35:32.380Z,9.10
2023-05-19T07:38:04.728Z,9.13
2023-05-19T07:40:33.084Z,10.85
2023-05-19T07:43:02.408Z,13.30
2023-05-19T07:45:32.034Z,14.10
2023-05-19T07:48:07.075Z,14.43
2023-05-19T07:50:36.091Z,12.40
2023-05-19T07:53:06.051Z,11.48
2023-05-19T07:55:34.626Z,10.75
2023-05-19T07:58:03.152Z,11.13
2023-05-19T08:00:34.810Z,9.60
2023-05-19T08:05:32.073Z,9.88
2023-05-19T08:08:00.280Z,11.98
2023-05-19T08:10:34.600Z,10.63
2023-05-19T08:13:03.160Z,11.20
2023-05-19T08:15:32.361Z,11.38
2023-05-19T08:18:01.809Z,11.57
2023-05-19T08:20:30.330Z,10.43
2023-05-19T08:22:58.948Z,11.75
2023-05-19T08:25:27.216Z,11.93
2023-05-19T08:27:56.904Z,10.48
2023-05-19T08:30:25.676Z,7.22
2023-05-19T08:32:53.938Z,6.60
2023-05-19T08:35:22.318Z,9.02
2023-05-19T08:37:50.798Z,10.40
2023-05-19T08:40:19.440Z,9.60
2023-05-19T08:42:48.211Z,9.00
2023-05-19T08:45:18.091Z,7.28
2023-05-19T08:47:48.141Z,7.93
2023-05-19T08:50:23.019Z,8.30
2023-05-19T08:52:54.291Z,7.00
2023-05-19T08:55:34.334Z,5.13
2023-05-19T08:58:04.857Z,5.38
2023-05-19T09:00:37.847Z,6.22
2023-05-19T09:03:18.166Z,5.72
2023-05-19T09:05:52.698Z,6.07
2023-05-19T09:08:21.005Z,4.88
2023-05-19T09:10:49.499Z,4.80
2023-05-19T09:13:17.957Z,4.90
2023-05-19T09:15:48.125Z,4.80
2023-05-19T09:18:16.382Z,5.40
2023-05-19T09:20:46.126Z,5.60
2023-05-19T09:23:16.317Z,5.20
2023-05-19T09:25:49.419Z,5.00
2023-05-19T09:28:25.344Z,4.85
2023-05-19T09:31:06.282Z,4.90
2023-05-19T09:33:36.522Z,5.17
2023-05-19T09:36:06.673Z,4.88
2023-05-19T09:38:36.673Z,4.55
2023-05-19T09:41:06.350Z,5.10
2023-05-19T09:43:35.917Z,5.38
2023-05-19T09:46:12.164Z,5.40
2023-05-19T09:48:42.891Z,5.07
2023-05-19T09:51:11.785Z,6.10
2023-05-19T09:53:40.152Z,5.18
2023-05-19T09:56:10.451Z,4.72
2023-05-19T09:58:39.379Z,4.72
2023-05-19T10:01:10.952Z,4.47
2023-05-19T10:03:40.872Z,4.45
2023-05-19T10:06:09.444Z,4.78
2023-05-19T10:08:38.926Z,4.20
2023-05-19T10:11:08.467Z,5.25
2023-05-19T10:13:39.804Z,4.40
2023-05-19T10:16:20.160Z,4.10
2023-05-19T10:18:50.695Z,4.10
2023-05-19T10:21:20.859Z,3.90
2023-05-19T10:23:50.388Z,4.10
2023-05-19T10:26:19.549Z,4.00
2023-05-19T10:28:49.537Z,4.28
2023-05-19T10:31:24.414Z,4.45
2023-05-19T10:34:13.799Z,4.20
2023-05-19T10:36:48.873Z,3.97
2023-05-19T10:39:20.936Z,4.20
2023-05-19T10:42:00.255Z,4.00
2023-05-19T10:44:42.106Z,4.00
2023-05-19T10:47:12.569Z,3.90
2023-05-19T10:49:46.942Z,4.20
2023-05-19T10:52:30.137Z,3.95
2023-05-19T10:54:59.333Z,3.90
2023-05-19T10:57:32.387Z,4.00
2023-05-19T11:00:11.496Z,4.18
2023-05-19T11:02:45.336Z,4.00
2023-05-19T11:05:18.529Z,3.70
2023-05-19T11:08:02.168Z,3.60
2023-05-19T11:10:34.581Z,3.60
2023-05-19T11:13:03.729Z,3.80
2023-05-19T11:15:40.724Z,4.05
2023-05-19T11:18:20.573Z,3.70
2023-05-19T11:21:02.699Z,3.70
2023-05-19T11:23:35.775Z,3.55
2023-05-19T11:26:04.271Z,3.58
2023-05-19T11:28:34.236Z,3.60
2023-05-19T11:31:04.140Z,3.80
2023-05-19T11:33:36.890Z,3.78
2023-05-19T11:36:10.262Z,4.10
2023-05-19T11:38:40.759Z,3.75
2023-05-19T11:41:09.294Z,3.80
2023-05-19T11:43:42.523Z,3.58
2023-05-19T11:46:11.388Z,3.50
2023-05-19T11:48:41.314Z,3.50
2023-05-19T11:51:13.356Z,3.60
2023-05-19T11:53:46.138Z,3.25
2023-05-19T11:56:18.601Z,3.70
2023-05-19T11:58:47.376Z,3.45
2023-05-19T12:01:16.239Z,3.42
2023-05-19T12:03:46.599Z,4.20
2023-05-19T12:06:18.991Z,3.60
2023-05-19T12:08:47.270Z,3.58
2023-05-19T12:11:16.992Z,3.33
2023-05-19T12:13:46.495Z,3.80
2023-05-19T12:16:14.883Z,3.80
2023-05-19T12:18:45.357Z,3.30
2023-05-19T12:21:17.457Z,3.33
2023-05-19T12:23:46.615Z,3.10
2023-05-19T12:26:16.420Z,3.10
2023-05-19T12:28:54.031Z,2.90
2023-05-19T12:31:23.576Z,2.97
2023-05-19T12:33:53.944Z,2.90
2023-05-19T12:36:24.970Z,3.13
2023-05-19T12:38:55.846Z,3.10
2023-05-19T12:41:27.303Z,3.08
2023-05-19T12:43:56.749Z,3.30
2023-05-19T12:46:25.148Z,3.08
2023-05-19T12:49:01.026Z,2.85
2023-05-19T12:51:29.590Z,3.30
2023-05-19T12:53:58.484Z,3.20
2023-05-19T12:56:28.098Z,3.47
2023-05-19T12:58:56.728Z,3.10
2023-05-19T13:01:25.440Z,3.25
2023-05-19T13:03:55.639Z,3.30
2023-05-19T13:06:24.846Z,3.17
2023-05-19T13:08:53.443Z,3.10
2023-05-19T13:11:21.898Z,3.20
2023-05-19T13:13:53.075Z,3.10
2023-05-19T13:16:21.681Z,3.08
2023-05-19T13:18:53.749Z,3.40
2023-05-19T13:21:24.994Z,3.28
2023-05-19T13:23:59.642Z,3.22
2023-05-19T13:26:31.267Z,3.00
2023-05-19T13:28:59.889Z,3.08
2023-05-19T13:31:28.575Z,3.05
2023-05-19T13:33:56.818Z,3.30
2023-05-19T13:36:29.558Z,3.10
2023-05-19T13:39:01.483Z,3.10
2023-05-19T13:41:30.374Z,3.10
2023-05-19T13:43:59.791Z,3.10
2023-05-19T13:46:43.863Z,3.30
2023-05-19T13:49:13.943Z,3.00
2023-05-19T13:51:45.181Z,3.38
2023-05-19T13:54:14.035Z,3.13
2023-05-19T13:56:46.143Z,3.00
2023-05-19T13:59:18.620Z,2.95
2023-05-19T14:01:47.061Z,3.55
2023-05-19T14:04:20.203Z,3.10
2023-05-19T14:06:50.629Z,3.10
2023-05-19T14:09:19.685Z,3.10
2023-05-19T14:11:50.333Z,3.10
2023-05-19T14:14:20.387Z,3.30
2023-05-19T14:16:52.684Z,3.33
2023-05-19T14:19:21.079Z,2.90
2023-05-19T14:21:58.806Z,3.28
2023-05-19T14:24:27.388Z,3.10
2023-05-19T14:26:59.338Z,3.30
2023-05-19T14:31:57.631Z,3.00
2023-05-19T14:34:32.594Z,3.08
2023-05-19T14:37:07.313Z,3.20
2023-05-19T14:39:36.815Z,3.17
2023-05-19T14:42:08.143Z,3.00
2023-05-19T14:44:38.405Z,3.45
2023-05-19T14:47:08.482Z,3.20
2023-05-19T14:49:36.972Z,3.10
2023-05-19T14:52:10.342Z,3.50
2023-05-19T14:54:38.599Z,3.10
2023-05-19T14:57:08.245Z,3.20
2023-05-19T14:59:38.612Z,3.00
2023-05-19T15:02:07.420Z,3.50
2023-05-19T15:04:40.683Z,3.50
2023-05-19T15:07:15.618Z,3.22
2023-05-19T15:09:47.290Z,3.22
2023-05-19T15:12:15.831Z,3.25
2023-05-19T15:14:44.053Z,3.30
2023-05-19T15:17:13.794Z,3.28
2023-05-19T15:19:42.929Z,3.22
2023-05-19T15:22:13.309Z,3.15
2023-05-19T15:24:42.385Z,3.38
2023-05-19T15:27:11.094Z,3.10
2023-05-19T15:29:43.509Z,3.17
2023-05-19T15:32:12.494Z,3.47
2023-05-19T15:34:43.572Z,3.40
2023-05-19T15:37:14.252Z,3.30
2023-05-19T15:39:43.012Z,3.20
2023-05-19T15:42:11.382Z,3.20
2023-05-19T15:44:41.996Z,3.35
2023-05-19T15:47:10.543Z,3.53
2023-05-19T15:49:38.994Z,3.58
2023-05-19T15:52:09.005Z,3.38
2023-05-19T15:54:38.856Z,3.58
2023-05-19T15:57:09.748Z,3.10
2023-05-19T15:59:38.153Z,3.58
2023-05-19T16:02:06.955Z,3.35
2023-05-19T16:04:36.667Z,3.63
2023-05-19T16:07:05.397Z,3.70
2023-05-19T16:09:33.941Z,3.42
2023-05-19T16:12:07.002Z,3.72
2023-05-19T16:14:36.950Z,3.42
2023-05-19T16:17:11.251Z,3.30
2023-05-19T16:19:40.026Z,3.50
2023-05-19T16:22:09.264Z,3.70
2023-05-19T16:24:38.042Z,3.70
2023-05-19T16:27:08.218Z,3.72
2023-05-19T16:29:38.042Z,3.63
2023-05-19T16:32:08.710Z,3.88
2023-05-19T16:34:37.457Z,3.53
2023-05-19T16:37:06.182Z,3.90
2023-05-19T16:39:43.777Z,3.70
2023-05-19T16:42:16.526Z,3.70
2023-05-19T16:44:45.356Z,3.97
2023-05-19T16:47:13.992Z,3.65
2023-05-19T16:49:44.192Z,4.05
2023-05-19T16:52:22.104Z,3.80
2023-05-19T16:54:54.761Z,4.00
2023-05-19T16:57:32.355Z,4.43
2023-05-19T17:00:01.846Z,4.18
2023-05-19T17:02:30.593Z,4.05
2023-05-19T17:04:59.430Z,4.10
2023-05-19T17:07:29.308Z,4.05
2023-05-19T17:09:59.941Z,4.30
2023-05-19T17:12:32.133Z,4.40
2023-05-19T17:15:01.660Z,4.57
2023-05-19T17:17:30.027Z,4.50
2023-05-19T17:19:58.536Z,4.40
2023-05-19T17:22:28.818Z,4.78
2023-05-19T17:27:27.529Z,4.88
2023-05-19T17:29:59.208Z,4.60
2023-05-19T17:35:00.242Z,4.63
2023-05-19T17:37:30.207Z,4.50
2023-05-19T17:40:05.837Z,4.90
2023-05-19T17:42:34.377Z,5.10
2023-05-19T17:45:07.685Z,4.80
2023-05-19T17:47:36.974Z,4.60
2023-05-19T17:50:05.775Z,4.88
2023-05-19T17:52:35.348Z,4.55
2023-05-19T17:55:07.131Z,5.10
2023-05-19T18:00:10.139Z,4.80
2023-05-19T18:02:40.299Z,5.00
2023-05-19T18:05:12.710Z,4.97
2023-05-19T18:07:43.934Z,5.15
2023-05-19T18:10:22.636Z,5.53
2023-05-19T18:12:51.233Z,5.47
2023-05-19T18:15:21.060Z,6.25
2023-05-19T18:17:52.530Z,6.00
2023-05-19T18:20:23.898Z,5.93
2023-05-19T18:22:58.861Z,5.93
2023-05-19T18:25:29.085Z,7.15
2023-05-19T18:28:00.230Z,7.13
2023-05-19T18:30:32.558Z,8.82
2023-05-19T18:33:04.087Z,7.38
2023-05-19T18:35:35.714Z,7.55
2023-05-19T18:38:04.034Z,7.15
2023-05-19T18:40:36.484Z,6.97
2023-05-19T18:43:05.943Z,6.75
2023-05-19T18:45:39.143Z,7.20
2023-05-19T18:48:10.338Z,7.05
2023-05-19T18:50:41.328Z,7.75
2023-05-19T18:53:09.786Z,7.60
2023-05-19T18:55:42.404Z,7.43
2023-05-19T18:58:15.366Z,8.10
2023-05-19T19:00:46.864Z,7.60
2023-05-19T19:03:23.724Z,7.45
2023-05-19T19:05:57.521Z,7.25
2023-05-19T19:08:27.820Z,7.82
2023-05-19T19:11:00.328Z,7.80
2023-05-19T19:13:29.952Z,8.55
2023-05-19T19:16:05.427Z,8.95
2023-05-19T19:18:36.412Z,8.57
2023-05-19T19:21:13.313Z,8.05
2023-05-19T19:23:41.530Z,9.07
2023-05-19T19:26:09.991Z,8.85
2023-05-19T19:28:38.598Z,9.32
2023-05-19T19:31:14.353Z,9.90
2023-05-19T19:33:43.551Z,10.35
2023-05-19T19:36:12.713Z,11.43
2023-05-19T19:38:44.280Z,12.00
2023-05-19T19:41:15.394Z,11.90
2023-05-19T19:43:49.660Z,12.30
2023-05-19T19:46:25.150Z,12.27
2023-05-19T19:48:57.503Z,12.75
2023-05-19T19:51:29.373Z,13.35
2023-05-19T19:53:58.709Z,13.55
2023-05-19T19:56:27.682Z,13.63
2023-05-19T19:58:59.560Z,13.27
2023-05-19T20:01:30.100Z,13.32
2023-05-19T20:04:01.063Z,13.50
2023-05-19T20:06:29.519Z,13.30
2023-05-19T20:09:00.843Z,13.20
2023-05-19T20:11:32.265Z,13.90
2023-05-19T20:14:05.328Z,12.73
2023-05-19T20:16:40.882Z,12.77
2023-05-19T20:19:14.644Z,12.23
2023-05-19T20:21:45.835Z,12.57
2023-05-19T20:24:24.439Z,12.05
2023-05-19T20:26:56.005Z,12.70
2023-05-19T20:29:27.506Z,12.48
2023-05-19T20:32:08.955Z,12.23
2023-05-19T20:34:42.210Z,12.48
2023-05-19T20:37:10.882Z,12.18
2023-05-19T20:39:39.961Z,13.18
2023-05-19T20:42:11.927Z,12.20
2023-05-19T20:44:40.854Z,12.23
2023-05-19T20:47:12.179Z,12.90
2023-05-19T20:49:40.613Z,12.45
2023-05-19T20:52:09.309Z,11.38
2023-05-19T20:54:43.258Z,11.43
2023-05-19T20:57:15.428Z,11.75
2023-05-19T20:59:49.095Z,11.90
2023-05-19T21:02:22.869Z,11.90
2023-05-19T21:04:52.541Z,11.85
2023-05-19T21:07:27.346Z,11.38
2023-05-19T21:09:57.716Z,12.55
2023-05-19T21:12:34.395Z,12.00
2023-05-19T21:15:03.820Z,11.68
2023-05-19T21:17:41.222Z,12.02
2023-05-19T21:20:12.870Z,11.65
2023-05-19T21:22:43.484Z,11.38
2023-05-19T21:25:17.226Z,11.60
2023-05-19T21:27:46.443Z,11.88
2023-05-19T21:30:16.470Z,12.00
2023-05-19T21:32:47.460Z,12.07
2023-05-19T21:35:17.200Z,12.05
2023-05-19T21:37:50.373Z,12.68
2023-05-19T21:40:19.537Z,12.75
2023-05-19T21:42:50.191Z,12.90
2023-05-19T21:45:23.390Z,12.77
2023-05-19T21:47:53.535Z,12.43
2023-05-19T21:50:25.175Z,13.55
2023-05-19T21:52:55.486Z,12.85
2023-05-19T21:55:24.754Z,12.85
2023-05-19T21:57:53.088Z,13.77
2023-05-19T22:00:25.770Z,13.57
2023-05-19T22:02:57.505Z,14.80
2023-05-19T22:08:01.265Z,14.65
2023-05-19T22:10:33.251Z,15.23
2023-05-19T22:13:05.035Z,16.25
2023-05-19T22:15:36.463Z,15.60
2023-05-19T22:18:07.014Z,15.13
2023-05-19T22:20:37.850Z,15.43
2023-05-19T22:23:11.105Z,14.80
2023-05-19T22:25:41.439Z,14.10
2023-05-19T22:28:16.083Z,14.00
2023-05-19T22:30:53.664Z,13.88
2023-05-19T22:33:24.993Z,13.50
2023-05-19T22:35:53.558Z,13.30
2023-05-19T22:38:27.208Z,13.55
2023-05-19T22:40:57.473Z,13.40
2023-05-19T22:43:34.105Z,13.75
2023-05-19T22:46:04.708Z,13.25
2023-05-19T22:48:34.581Z,13.02
2023-05-19T22:51:10.979Z,14.07
2023-05-19T22:53:41.987Z,12.95
2023-05-19T22:56:13.618Z,13.05
2023-05-19T22:58:49.890Z,11.82
2023-05-19T23:01:19.300Z,12.18
2023-05-19T23:03:50.785Z,12.43
2023-05-19T23:06:19.602Z,13.40
2023-05-19T23:08:48.109Z,12.95
2023-05-19T23:11:19.100Z,12.93
2023-05-19T23:13:47.676Z,13.03
2023-05-19T23:16:19.556Z,12.93
2023-05-19T23:21:22.832Z,13.95
2023-05-19T23:23:55.615Z,13.00
2023-05-19T23:26:24.242Z,14.45
2023-05-19T23:28:52.772Z,14.85
2023-05-19T23:31:21.661Z,14.68
2023-05-19T23:33:50.755Z,16.17
2023-05-19T23:36:21.012Z,16.65
2023-05-19T23:38:51.410Z,16.17
2023-05-19T23:41:24.058Z,16.80
2023-05-19T23:43:58.393Z,15.00
2023-05-19T23:46:26.944Z,15.52
2023-05-19T23:48:57.200Z,15.48
2023-05-19T23:51:28.247Z,15.15
2023-05-19T23:53:56.688Z,14.95
2023-05-19T23:56:25.081Z,15.85
2023-05-19T23:58:56.985Z,14.25
